createdAt,value
2018-01-20T00:00:33.114Z,4.00
2018-01-20T00:03:00.609Z,4.00
2018-01-20T00:05:28.068Z,4.10
2018-01-20T00:07:55.478Z,4.00
2018-01-20T00:10:34.799Z,4.00
2018-01-20T00:13:02.428Z,4.00
2018-01-20T00:15:29.838Z,3.90
2018-01-20T00:18:03.060Z,3.90
2018-01-20T00:20:30.619Z,4.00
2018-01-20T00:22:59.834Z,4.00
2018-01-20T00:25:27.382Z,4.00
2018-01-20T00:27:54.790Z,3.90
2018-01-20T00:30:22.210Z,3.90
2018-01-20T00:32:49.626Z,3.90
2018-01-20T00:35:17.196Z,3.90
2018-01-20T00:37:44.655Z,3.90
2018-01-20T00:40:12.078Z,3.90
2018-01-20T00:42:39.564Z,3.90
2018-01-20T00:45:07.024Z,4.00
2018-01-20T00:47:34.426Z,4.00
2018-01-20T00:50:01.937Z,3.90
2018-01-20T00:52:29.398Z,3.90
2018-01-20T00:54:56.858Z,4.00
2018-01-20T00:57:24.278Z,3.90
2018-01-20T00:59:51.690Z,3.90
2018-01-20T01:02:19.130Z,3.90
2018-01-20T01:04:46.542Z,3.80
2018-01-20T01:07:14.826Z,3.80
2018-01-20T01:09:42.238Z,3.80
2018-01-20T01:12:09.834Z,3.80
2018-01-20T01:14:37.423Z,3.80
2018-01-20T01:17:04.880Z,3.80
2018-01-20T01:19:32.290Z,3.80
2018-01-20T01:21:59.763Z,3.80
2018-01-20T01:24:27.166Z,3.80
2018-01-20T01:26:54.705Z,3.80
2018-01-20T01:29:22.161Z,3.80
2018-01-20T01:31:49.606Z,3.80
2018-01-20T01:34:17.017Z,3.80
2018-01-20T01:36:45.359Z,3.80
2018-01-20T01:39:12.768Z,3.80
2018-01-20T01:41:41.160Z,3.80
2018-01-20T01:44:08.734Z,3.80
2018-01-20T01:46:36.160Z,3.80
2018-01-20T01:49:03.646Z,3.80
2018-01-20T01:51:31.054Z,3.80
2018-01-20T01:53:59.489Z,3.80
2018-01-20T01:56:26.898Z,3.80
2018-01-20T01:58:54.402Z,3.80
2018-01-20T02:01:21.812Z,3.80
2018-01-20T02:03:49.310Z,3.70
2018-01-20T02:06:16.718Z,3.80
2018-01-20T02:08:44.970Z,3.80
2018-01-20T02:11:12.603Z,3.80
2018-01-20T02:13:40.037Z,3.90
2018-01-20T02:16:07.516Z,3.90
2018-01-20T02:18:34.973Z,4.00
2018-01-20T02:21:02.383Z,4.00
2018-01-20T02:23:29.889Z,4.00
2018-01-20T02:25:57.306Z,3.90
2018-01-20T02:28:24.802Z,3.90
2018-01-20T02:30:52.246Z,3.90
2018-01-20T02:33:19.718Z,3.90
2018-01-20T02:35:47.134Z,3.90
2018-01-20T02:38:14.623Z,3.80
2018-01-20T02:40:42.034Z,3.70
2018-01-20T02:43:09.451Z,3.80
2018-01-20T02:45:36.899Z,3.80
2018-01-20T02:48:04.458Z,3.80
2018-01-20T02:50:31.879Z,3.80
2018-01-20T02:52:59.357Z,3.80
2018-01-20T02:55:26.814Z,3.70
2018-01-20T02:57:54.267Z,3.70
2018-01-20T03:00:21.687Z,3.80
2018-01-20T03:02:49.099Z,3.80
2018-01-20T03:05:16.574Z,3.80
2018-01-20T03:07:43.995Z,3.70
2018-01-20T03:10:11.454Z,3.80
2018-01-20T03:12:38.875Z,3.80
2018-01-20T03:15:07.063Z,3.70
2018-01-20T03:17:34.542Z,3.70
2018-01-20T03:20:01.970Z,3.70
2018-01-20T03:22:29.447Z,3.70
2018-01-20T03:24:56.871Z,3.80
2018-01-20T03:27:24.282Z,3.70
2018-01-20T03:29:51.812Z,3.80
2018-01-20T03:32:19.269Z,3.70
2018-01-20T03:34:46.679Z,3.70
2018-01-20T03:37:14.099Z,3.70
2018-01-20T03:39:41.641Z,3.60
2018-01-20T03:42:09.054Z,3.60
2018-01-20T03:44:36.467Z,3.60
2018-01-20T03:47:03.914Z,3.60
2018-01-20T03:49:31.490Z,3.60
2018-01-20T03:51:59.234Z,3.60
2018-01-20T03:54:26.691Z,3.70
2018-01-20T03:56:54.105Z,3.60
2018-01-20T03:59:21.599Z,3.60
2018-01-20T04:01:49.015Z,3.60
2018-01-20T04:04:16.426Z,3.70
2018-01-20T04:06:43.866Z,3.70
2018-01-20T04:09:11.426Z,3.70
2018-01-20T04:11:38.852Z,3.70
2018-01-20T04:14:06.262Z,3.70
2018-01-20T04:16:33.702Z,3.70
2018-01-20T04:19:01.154Z,3.80
2018-01-20T04:21:28.683Z,3.80
2018-01-20T04:23:56.165Z,3.80
2018-01-20T04:26:23.618Z,3.70
2018-01-20T04:28:51.039Z,3.80
2018-01-20T04:31:18.532Z,3.80
2018-01-20T04:33:45.942Z,3.80
2018-01-20T04:36:13.436Z,3.80
2018-01-20T04:38:40.859Z,3.90
2018-01-20T04:41:08.346Z,3.90
2018-01-20T04:43:35.771Z,4.00
2018-01-20T04:46:03.262Z,3.90
2018-01-20T04:48:30.719Z,3.90
2018-01-20T04:50:58.131Z,3.90
2018-01-20T04:53:26.556Z,3.90
2018-01-20T04:55:53.962Z,3.90
2018-01-20T04:58:21.464Z,3.90
2018-01-20T05:00:48.926Z,3.90
2018-01-20T05:03:16.339Z,3.90
2018-01-20T05:05:43.748Z,4.00
2018-01-20T05:08:11.202Z,4.00
2018-01-20T05:10:38.615Z,4.00
2018-01-20T05:13:06.791Z,3.90
2018-01-20T05:15:34.282Z,3.90
2018-01-20T05:18:01.741Z,4.00
2018-01-20T05:20:29.155Z,4.00
2018-01-20T05:22:56.763Z,4.00
2018-01-20T05:25:24.314Z,4.10
2018-01-20T05:27:51.867Z,4.00
2018-01-20T05:30:19.286Z,4.00
2018-01-20T05:32:46.700Z,4.10
2018-01-20T05:35:14.151Z,4.10
2018-01-20T05:37:41.697Z,4.10
2018-01-20T05:40:09.119Z,4.10
2018-01-20T05:42:36.532Z,4.10
2018-01-20T05:45:04.051Z,4.10
2018-01-20T05:47:31.466Z,4.10
2018-01-20T05:49:58.985Z,4.10
2018-01-20T05:52:26.427Z,4.20
2018-01-20T05:54:53.874Z,4.10
2018-01-20T05:57:21.292Z,4.20
2018-01-20T05:59:48.700Z,4.20
2018-01-20T06:02:16.118Z,4.20
2018-01-20T06:04:44.290Z,4.30
2018-01-20T06:07:11.720Z,4.30
2018-01-20T06:09:39.226Z,4.30
2018-01-20T06:12:06.687Z,4.30
2018-01-20T06:14:34.100Z,4.30
2018-01-20T06:17:01.518Z,4.30
2018-01-20T06:19:28.964Z,4.30
2018-01-20T06:21:56.510Z,4.40
2018-01-20T06:24:23.923Z,4.40
2018-01-20T06:26:51.337Z,4.30
2018-01-20T06:29:18.750Z,4.30
2018-01-20T06:31:46.938Z,4.30
2018-01-20T06:34:14.358Z,4.30
2018-01-20T06:36:41.774Z,4.30
2018-01-20T06:39:09.319Z,4.30
2018-01-20T06:41:36.734Z,4.30
2018-01-20T06:44:04.154Z,4.20
2018-01-20T06:46:31.584Z,4.20
2018-01-20T06:48:59.144Z,4.20
2018-01-20T06:51:26.554Z,4.30
2018-01-20T06:53:53.979Z,4.30
2018-01-20T06:56:21.732Z,4.30
2018-01-20T06:58:49.195Z,4.20
2018-01-20T07:01:16.737Z,4.30
2018-01-20T07:03:44.158Z,4.30
2018-01-20T07:06:11.566Z,4.30
2018-01-20T07:08:39.106Z,4.20
2018-01-20T07:11:06.559Z,4.30
2018-01-20T07:13:34.015Z,4.20
2018-01-20T07:16:01.435Z,4.30
2018-01-20T07:18:29.755Z,4.30
2018-01-20T07:20:57.171Z,4.30
2018-01-20T07:23:25.686Z,4.10
2018-01-20T07:25:53.098Z,4.10
2018-01-20T07:28:20.594Z,4.10
2018-01-20T07:30:48.065Z,4.00
2018-01-20T07:33:15.519Z,4.00
2018-01-20T07:35:42.926Z,3.90
2018-01-20T07:38:10.347Z,3.90
2018-01-20T07:40:37.875Z,3.90
2018-01-20T07:43:05.347Z,3.90
2018-01-20T07:45:32.772Z,3.90
2018-01-20T07:48:00.184Z,3.90
2018-01-20T07:50:27.674Z,3.90
2018-01-20T07:52:55.091Z,3.90
2018-01-20T07:55:22.614Z,3.90
2018-01-20T07:57:50.018Z,3.90
2018-01-20T08:00:17.447Z,3.90
2018-01-20T08:02:44.886Z,3.80
2018-01-20T08:05:12.442Z,3.80
2018-01-20T08:07:39.895Z,3.80
2018-01-20T08:10:07.351Z,3.80
2018-01-20T08:12:34.754Z,3.80
2018-01-20T08:15:02.179Z,3.80
2018-01-20T08:17:29.581Z,3.80
2018-01-20T08:19:57.792Z,3.90
2018-01-20T08:22:25.227Z,3.90
2018-01-20T08:24:52.702Z,3.90
2018-01-20T08:27:20.143Z,3.80
2018-01-20T08:29:47.552Z,3.90
2018-01-20T08:32:15.080Z,3.80
2018-01-20T08:34:42.622Z,3.90
2018-01-20T08:37:10.170Z,4.00
2018-01-20T08:39:37.579Z,4.00
2018-01-20T08:42:05.114Z,4.00
2018-01-20T08:44:32.518Z,4.00
2018-01-20T08:47:00.751Z,4.10
2018-01-20T08:49:28.171Z,4.20
2018-01-20T08:51:55.650Z,4.20
2018-01-20T08:54:23.103Z,4.20
2018-01-20T08:56:50.535Z,4.20
2018-01-20T08:59:17.938Z,4.30
2018-01-20T09:01:45.384Z,4.30
2018-01-20T09:04:12.927Z,4.30
2018-01-20T09:06:40.350Z,4.30
2018-01-20T09:09:07.766Z,4.30
2018-01-20T09:11:35.195Z,4.30
2018-01-20T09:14:02.658Z,4.30
2018-01-20T09:16:30.104Z,4.40
2018-01-20T09:18:57.665Z,4.30
2018-01-20T09:21:25.074Z,4.40
2018-01-20T09:23:52.511Z,4.40
2018-01-20T09:26:19.932Z,4.40
2018-01-20T09:28:47.349Z,4.40
2018-01-20T09:31:15.589Z,4.50
2018-01-20T09:33:43.013Z,4.50
2018-01-20T09:36:10.419Z,4.50
2018-01-20T09:38:37.865Z,4.60
2018-01-20T09:41:05.287Z,4.60
2018-01-20T09:43:32.839Z,4.60
2018-01-20T09:46:00.299Z,4.60
2018-01-20T09:48:27.730Z,4.70
2018-01-20T09:50:55.206Z,4.70
2018-01-20T09:53:22.634Z,4.80
2018-01-20T09:55:50.124Z,4.80
2018-01-20T09:58:17.582Z,4.80
2018-01-20T10:00:44.998Z,4.80
2018-01-20T10:03:12.414Z,4.70
2018-01-20T10:05:39.966Z,4.70
2018-01-20T10:08:07.419Z,4.70
2018-01-20T10:10:34.830Z,4.70
2018-01-20T10:13:02.255Z,4.60
2018-01-20T10:15:29.770Z,4.70
2018-01-20T10:17:57.234Z,4.70
2018-01-20T10:20:24.650Z,4.70
2018-01-20T10:22:52.066Z,4.70
2018-01-20T10:25:19.522Z,4.70
2018-01-20T10:27:46.942Z,4.70
2018-01-20T10:30:14.411Z,4.80
2018-01-20T10:32:41.811Z,4.80
2018-01-20T10:35:09.372Z,4.80
2018-01-20T10:37:36.803Z,4.70
2018-01-20T10:40:04.343Z,4.70
2018-01-20T10:42:32.735Z,4.70
2018-01-20T10:45:00.351Z,4.70
2018-01-20T10:47:28.783Z,4.70
2018-01-20T10:49:56.216Z,4.70
2018-01-20T10:52:23.763Z,4.70
2018-01-20T10:54:51.178Z,4.70
2018-01-20T10:57:18.611Z,4.70
2018-01-20T10:59:46.143Z,4.70
2018-01-20T11:02:13.577Z,4.70
2018-01-20T11:04:40.967Z,4.70
2018-01-20T11:07:08.502Z,4.70
2018-01-20T11:09:35.911Z,4.70
2018-01-20T11:12:03.326Z,4.70
2018-01-20T11:14:30.874Z,4.80
2018-01-20T11:16:58.307Z,4.80
2018-01-20T11:19:26.295Z,4.80
2018-01-20T11:21:53.714Z,4.70
2018-01-20T11:24:21.894Z,4.70
2018-01-20T11:26:49.349Z,4.70
2018-01-20T11:29:16.723Z,4.70
2018-01-20T11:31:44.299Z,4.80
2018-01-20T11:34:11.711Z,4.70
2018-01-20T11:36:39.146Z,4.80
2018-01-20T11:39:06.626Z,4.80
2018-01-20T11:41:34.056Z,4.80
2018-01-20T11:44:01.579Z,4.80
2018-01-20T11:46:28.995Z,4.80
2018-01-20T11:48:56.494Z,4.90
2018-01-20T11:51:23.915Z,4.90
2018-01-20T11:53:51.338Z,4.90
2018-01-20T11:56:18.855Z,4.90
2018-01-20T11:58:46.270Z,4.90
2018-01-20T12:01:13.787Z,5.00
2018-01-20T12:03:41.434Z,4.90
2018-01-20T12:06:09.026Z,4.90
2018-01-20T12:08:36.440Z,4.90
2018-01-20T12:11:03.904Z,4.90
2018-01-20T12:13:31.326Z,4.90
2018-01-20T12:15:58.812Z,4.90
2018-01-20T12:18:26.235Z,4.90
2018-01-20T12:20:53.660Z,4.90
2018-01-20T12:23:21.096Z,4.90
2018-01-20T12:25:48.515Z,4.90
2018-01-20T12:28:15.966Z,4.80
2018-01-20T12:30:43.430Z,4.80
2018-01-20T12:33:10.937Z,4.80
2018-01-20T12:35:38.375Z,4.90
2018-01-20T12:38:05.854Z,4.80
2018-01-20T12:40:33.315Z,4.80
2018-01-20T12:43:00.738Z,4.80
2018-01-20T12:45:28.191Z,4.80
2018-01-20T12:47:55.603Z,4.80
2018-01-20T12:50:23.778Z,4.90
2018-01-20T12:52:51.294Z,4.90
2018-01-20T12:55:18.717Z,4.80
2018-01-20T12:57:46.130Z,4.80
2018-01-20T13:00:13.551Z,4.80
2018-01-20T13:02:41.752Z,4.80
2018-01-20T13:05:09.174Z,4.80
2018-01-20T13:07:36.587Z,4.80
2018-01-20T13:10:04.009Z,4.80
2018-01-20T13:12:31.542Z,4.80
2018-01-20T13:14:58.991Z,4.70
2018-01-20T13:17:26.410Z,4.70
2018-01-20T13:19:53.829Z,4.70
2018-01-20T13:22:21.270Z,4.70
2018-01-20T13:24:48.721Z,4.70
2018-01-20T13:27:16.183Z,4.70
2018-01-20T13:29:43.738Z,4.70
2018-01-20T13:32:11.196Z,4.70
2018-01-20T13:34:38.647Z,4.70
2018-01-20T13:37:06.103Z,4.70
2018-01-20T13:39:33.558Z,4.70
2018-01-20T13:42:00.986Z,4.70
2018-01-20T13:44:28.471Z,4.70
2018-01-20T13:46:55.881Z,4.70
2018-01-20T13:49:23.384Z,4.70
2018-01-20T13:51:50.790Z,4.70
2018-01-20T13:54:18.221Z,4.70
2018-01-20T13:56:45.659Z,4.70
2018-01-20T13:59:13.210Z,4.70
2018-01-20T14:01:40.665Z,4.70
2018-01-20T14:04:08.078Z,4.70
2018-01-20T14:06:35.506Z,4.70
2018-01-20T14:09:02.927Z,4.70
2018-01-20T14:11:30.391Z,4.70
2018-01-20T14:13:57.947Z,4.70
2018-01-20T14:16:25.355Z,4.70
2018-01-20T14:18:52.795Z,4.70
2018-01-20T14:21:20.281Z,4.60
2018-01-20T14:23:47.701Z,4.60
2018-01-20T14:26:15.228Z,4.70
2018-01-20T14:28:42.649Z,4.70
2018-01-20T14:31:10.067Z,4.70
2018-01-20T14:33:37.508Z,4.70
2018-01-20T14:36:04.914Z,4.70
2018-01-20T14:38:33.294Z,4.70
2018-01-20T14:41:01.493Z,4.60
2018-01-20T14:43:28.957Z,4.60
2018-01-20T14:45:56.423Z,4.70
2018-01-20T14:48:23.842Z,4.70
2018-01-20T14:50:51.258Z,4.70
2018-01-20T14:53:18.741Z,4.70
2018-01-20T14:55:46.239Z,4.50
2018-01-20T14:58:13.674Z,4.40
2018-01-20T15:00:41.092Z,4.40
2018-01-20T15:03:08.520Z,4.40
2018-01-20T15:05:36.066Z,4.40
2018-01-20T15:08:03.482Z,4.30
2018-01-20T15:10:30.996Z,4.30
2018-01-20T15:12:58.382Z,4.30
2018-01-20T15:15:25.882Z,4.20
2018-01-20T15:17:53.302Z,4.10
2018-01-20T15:20:20.719Z,4.00
2018-01-20T15:22:48.164Z,4.00
2018-01-20T15:25:15.620Z,4.00
2018-01-20T15:27:43.166Z,4.00
2018-01-20T15:30:10.579Z,4.00
2018-01-20T15:32:38.002Z,4.00
2018-01-20T15:35:05.535Z,4.00
2018-01-20T15:37:32.958Z,4.00
2018-01-20T15:40:00.366Z,3.90
2018-01-20T15:42:27.911Z,4.00
2018-01-20T15:44:55.369Z,3.90
2018-01-20T15:47:22.823Z,3.90
2018-01-20T15:49:50.278Z,3.90
2018-01-20T15:52:18.225Z,3.80
2018-01-20T15:54:45.800Z,3.80
2018-01-20T15:57:13.202Z,3.80
2018-01-20T15:59:40.638Z,3.70
2018-01-20T16:02:08.475Z,3.70
2018-01-20T16:04:35.890Z,3.60
2018-01-20T16:07:03.326Z,3.60
2018-01-20T16:09:30.758Z,3.60
2018-01-20T16:11:58.308Z,3.50
2018-01-20T16:14:25.727Z,3.50
2018-01-20T16:16:53.139Z,3.50
2018-01-20T16:19:20.666Z,3.50
2018-01-20T16:21:48.132Z,3.50
2018-01-20T16:24:15.578Z,3.50
2018-01-20T16:26:43.034Z,3.50
2018-01-20T16:29:10.444Z,3.40
2018-01-20T16:31:37.865Z,3.40
2018-01-20T16:34:05.416Z,3.40
2018-01-20T16:36:32.835Z,3.30
2018-01-20T16:39:00.330Z,3.30
2018-01-20T16:41:27.780Z,3.30
2018-01-20T16:43:55.199Z,3.30
2018-01-20T16:46:22.626Z,3.20
2018-01-20T16:48:50.048Z,3.20
2018-01-20T16:51:17.478Z,3.20
2018-01-20T16:53:44.978Z,3.10
2018-01-20T16:56:12.422Z,3.10
2018-01-20T16:58:39.903Z,3.10
2018-01-20T17:01:07.435Z,3.00
2018-01-20T17:03:34.838Z,3.00
2018-01-20T17:06:02.341Z,2.90
2018-01-20T17:08:29.843Z,2.90
2018-01-20T17:10:57.253Z,2.90
2018-01-20T17:13:24.714Z,2.90
2018-01-20T17:15:52.165Z,2.90
2018-01-20T17:18:19.570Z,2.90
2018-01-20T17:20:46.982Z,2.90
2018-01-20T17:23:14.440Z,2.80
2018-01-20T17:25:41.864Z,2.80
2018-01-20T17:28:10.368Z,2.70
2018-01-20T17:30:37.791Z,2.70
2018-01-20T17:33:05.287Z,2.70
2018-01-20T17:35:32.703Z,2.70
2018-01-20T17:38:00.114Z,2.60
2018-01-20T17:40:27.653Z,2.60
2018-01-20T17:42:55.069Z,2.50
2018-01-20T17:45:22.473Z,2.50
2018-01-20T17:47:50.022Z,2.50
2018-01-20T17:50:17.466Z,2.50
2018-01-20T17:52:44.870Z,2.40
2018-01-20T17:55:13.108Z,2.40
2018-01-20T17:57:40.768Z,2.40
2018-01-20T18:00:08.220Z,2.40
2018-01-20T18:02:35.681Z,2.40
2018-01-20T18:05:03.094Z,2.30
2018-01-20T18:07:30.663Z,2.30
2018-01-20T18:09:58.358Z,2.30
2018-01-20T18:12:25.811Z,2.30
2018-01-20T18:14:53.266Z,2.30
2018-01-20T18:17:20.674Z,2.30
2018-01-20T18:19:48.978Z,2.30
2018-01-20T18:22:16.559Z,2.30
2018-01-20T18:24:44.016Z,2.30
2018-01-20T18:27:11.422Z,2.30
2018-01-20T18:29:38.843Z,2.30
2018-01-20T18:32:06.283Z,2.30
2018-01-20T18:34:33.846Z,2.40
2018-01-20T18:37:01.256Z,2.40
2018-01-20T18:39:28.687Z,2.30
2018-01-20T18:41:56.123Z,2.30
2018-01-20T18:44:23.543Z,2.30
2018-01-20T18:46:51.031Z,2.30
2018-01-20T18:49:18.519Z,2.30
2018-01-20T18:51:46.039Z,2.30
2018-01-20T18:54:13.454Z,2.30
2018-01-20T18:56:40.944Z,2.30
2018-01-20T18:59:08.399Z,2.30
2018-01-20T19:01:35.814Z,2.40
2018-01-20T19:04:03.234Z,2.30
2018-01-20T19:06:30.773Z,2.30
2018-01-20T19:08:58.509Z,2.30
2018-01-20T19:11:27.847Z,2.30
2018-01-20T19:13:55.294Z,2.30
2018-01-20T19:16:22.696Z,2.30
2018-01-20T19:18:50.147Z,2.30
2018-01-20T19:21:17.599Z,2.30
2018-01-20T19:23:45.058Z,2.30
2018-01-20T19:26:13.494Z,2.30
2018-01-20T19:28:40.940Z,2.30
2018-01-20T19:31:08.358Z,2.30
2018-01-20T19:33:35.770Z,2.30
2018-01-20T19:36:03.321Z,2.30
2018-01-20T19:38:30.741Z,2.30
2018-01-20T19:40:58.228Z,2.30
2018-01-20T19:43:25.643Z,2.30
2018-01-20T19:45:53.071Z,2.40
2018-01-20T19:48:20.502Z,2.40
2018-01-20T19:50:47.947Z,2.40
2018-01-20T19:53:15.531Z,2.40
2018-01-20T19:55:42.946Z,2.40
2018-01-20T19:58:10.377Z,2.40
2018-01-20T20:00:38.671Z,2.40
2018-01-20T20:03:06.166Z,2.40
2018-01-20T20:05:33.718Z,2.40
2018-01-20T20:08:01.173Z,2.50
2018-01-20T20:10:28.686Z,2.50
2018-01-20T20:12:56.402Z,2.40
2018-01-20T20:15:23.872Z,2.50
2018-01-20T20:17:51.486Z,2.50
2018-01-20T20:20:20.038Z,2.50
2018-01-20T20:22:47.422Z,2.50
2018-01-20T20:25:14.898Z,2.60
2018-01-20T20:27:42.318Z,2.50
2018-01-20T20:30:09.732Z,2.60
2018-01-20T20:32:37.181Z,2.60
2018-01-20T20:35:04.655Z,2.60
2018-01-20T20:37:32.180Z,2.60
2018-01-20T20:39:59.641Z,2.60
2018-01-20T20:42:27.086Z,2.60
2018-01-20T20:44:54.546Z,2.50
2018-01-20T20:47:22.133Z,2.50
2018-01-20T20:49:49.652Z,2.50
2018-01-20T20:52:17.071Z,2.60
2018-01-20T20:54:44.501Z,2.60
2018-01-20T20:57:11.938Z,2.50
2018-01-20T20:59:39.595Z,2.60
2018-01-20T21:02:07.053Z,2.60
2018-01-20T21:04:34.478Z,2.60
2018-01-20T21:07:01.891Z,2.60
2018-01-20T21:09:29.341Z,2.60
2018-01-20T21:11:56.817Z,2.60
2018-01-20T21:14:24.338Z,2.70
2018-01-20T21:16:51.755Z,2.70
2018-01-20T21:19:19.251Z,2.60
2018-01-20T21:21:46.700Z,2.70
2018-01-20T21:24:14.160Z,2.70
2018-01-20T21:26:41.616Z,2.70
2018-01-20T21:29:09.077Z,2.70
2018-01-20T21:31:36.529Z,2.70
2018-01-20T21:34:03.987Z,2.70
2018-01-20T21:36:31.398Z,2.70
2018-01-20T21:38:58.895Z,2.70
2018-01-20T21:41:26.350Z,2.70
2018-01-20T21:43:53.814Z,2.70
2018-01-20T21:46:21.275Z,2.70
2018-01-20T21:48:48.678Z,2.70
2018-01-20T21:51:16.179Z,2.70
2018-01-20T21:53:43.638Z,2.70
2018-01-20T21:56:11.087Z,2.70
2018-01-20T21:58:38.512Z,2.70
2018-01-20T22:01:05.934Z,2.70
2018-01-20T22:03:33.402Z,2.80
2018-01-20T22:06:01.742Z,2.80
2018-01-20T22:08:29.194Z,2.80
2018-01-20T22:10:56.622Z,2.80
2018-01-20T22:13:24.999Z,2.80
2018-01-20T22:15:53.410Z,2.70
2018-01-20T22:18:20.838Z,2.70
2018-01-20T22:20:48.370Z,2.70
2018-01-20T22:23:15.794Z,2.70
2018-01-20T22:25:43.334Z,2.70
2018-01-20T22:28:10.747Z,2.70
2018-01-20T22:30:38.244Z,2.70
2018-01-20T22:33:05.696Z,2.70
2018-01-20T22:35:33.106Z,2.70
2018-01-20T22:38:00.613Z,2.70
2018-01-20T22:40:28.031Z,2.80
2018-01-20T22:42:55.526Z,2.80
2018-01-20T22:45:22.982Z,2.80
2018-01-20T22:47:50.442Z,2.80
2018-01-20T22:50:17.858Z,2.70
2018-01-20T22:52:45.341Z,2.70
2018-01-20T22:55:12.762Z,2.70
2018-01-20T22:57:40.187Z,2.70
2018-01-20T23:00:07.718Z,2.70
2018-01-20T23:02:35.182Z,2.80
2018-01-20T23:05:02.631Z,2.80
2018-01-20T23:07:30.088Z,2.70
2018-01-20T23:09:57.540Z,2.80
2018-01-20T23:12:24.954Z,2.80
2018-01-20T23:14:52.451Z,2.80
2018-01-20T23:17:19.871Z,2.80
2018-01-20T23:19:47.294Z,2.80
2018-01-20T23:22:14.710Z,2.80
2018-01-20T23:24:42.158Z,2.80
2018-01-20T23:27:09.671Z,2.80
2018-01-20T23:29:37.104Z,2.80
2018-01-20T23:32:04.648Z,2.80
2018-01-20T23:34:32.102Z,2.80
2018-01-20T23:36:59.590Z,2.80
2018-01-20T23:39:27.198Z,2.80
2018-01-20T23:41:54.719Z,2.80
2018-01-20T23:44:22.151Z,2.80
2018-01-20T23:46:49.571Z,2.90
2018-01-20T23:49:17.099Z,2.80
2018-01-20T23:51:44.510Z,2.90
2018-01-20T23:54:11.938Z,2.80
2018-01-20T23:56:39.350Z,2.80
2018-01-20T23:59:06.979Z,2.80
